Time;durP1;ratioP1;P1;durP2;ratioP2;P2;SDS_P1;SDS_P2;PMS_P1;PMS_P2;Temp;Humidity;BMP_temperature;BMP_pressure;BME280_temperature;BME280_humidity;BME280_pressure;Samples;Min_cycle;Max_cycle;Signal;HPM_P1;HPM_P2
2022/07/02 00:02:15;;;;;;;4.07;3.47;;;19.70;99.90;;;;;;5016908;28;20184;-65
2022/07/02 00:04:46;;;;;;;3.30;3.00;;;19.60;99.90;;;;;;5010220;28;20185;-64
2022/07/02 00:07:14;;;;;;;4.10;3.60;;;19.60;99.90;;;;;;5013086;28;20438;-64
2022/07/02 00:09:40;;;;;;;3.23;2.93;;;19.60;99.90;;;;;;5015021;28;20458;-65
2022/07/02 00:12:09;;;;;;;3.43;3.10;;;19.70;99.90;;;;;;5009977;28;20446;-64
2022/07/02 00:14:36;;;;;;;4.40;3.20;;;19.60;99.90;;;;;;5013157;28;20180;-64
2022/07/02 00:17:02;;;;;;;3.20;2.90;;;19.60;99.90;;;;;;5011993;28;20970;-63
2022/07/02 00:19:29;;;;;;;3.57;3.10;;;19.60;99.90;;;;;;5010720;28;20473;-64
2022/07/02 00:21:57;;;;;;;8.00;3.10;;;19.60;99.90;;;;;;5013479;28;20173;-63
2022/07/02 00:24:22;;;;;;;3.03;2.73;;;19.60;99.90;;;;;;5012786;28;20435;-64
2022/07/02 00:26:57;;;;;;;3.70;2.67;;;19.60;99.90;;;;;;5010680;28;20446;-64
2022/07/02 00:29:55;;;;;;;4.50;2.93;;;19.60;99.90;;;;;;4996728;28;20196;-64
2022/07/02 00:32:21;;;;;;;4.00;2.60;;;19.60;99.90;;;;;;5013683;28;20435;-65
2022/07/02 00:34:46;;;;;;;2.90;2.60;;;19.60;99.90;;;;;;5009562;28;20455;-65
2022/07/02 00:37:13;;;;;;;3.57;2.70;;;19.60;99.90;;;;;;5015111;28;20272;-63
2022/07/02 00:39:40;;;;;;;3.30;2.80;;;19.50;99.90;;;;;;5013568;28;20577;-64
2022/07/02 00:42:08;;;;;;;3.30;2.77;;;19.30;99.90;;;;;;5011721;28;22781;-64
2022/07/02 00:44:34;;;;;;;5.07;3.53;;;19.40;99.90;;;;;;5012322;28;20523;-64
2022/07/02 00:47:05;;;;;;;2.90;2.70;;;19.40;99.90;;;;;;5011946;28;20534;-64
2022/07/02 00:49:32;;;;;;;3.23;2.93;;;19.40;99.90;;;;;;5012054;28;20553;-64
2022/07/02 00:51:58;;;;;;;3.50;2.70;;;19.30;99.90;;;;;;5013624;28;20441;-64
2022/07/02 00:54:24;;;;;;;2.83;2.27;;;19.30;99.90;;;;;;5014085;28;20439;-64
2022/07/02 00:56:52;;;;;;;3.03;2.73;;;19.30;99.90;;;;;;5010065;28;21010;-64
2022/07/02 00:59:18;;;;;;;3.33;3.03;;;19.30;99.90;;;;;;5013510;28;20722;-64
2022/07/02 01:01:44;;;;;;;4.07;3.03;;;19.30;99.90;;;;;;5010013;28;20515;-64
2022/07/02 01:04:13;;;;;;;3.40;2.70;;;19.30;99.90;;;;;;5014204;28;20522;-65
2022/07/02 01:06:39;;;;;;;3.77;2.80;;;19.30;99.90;;;;;;5011467;28;20572;-64
2022/07/02 01:11:52;;;;;;;4.40;2.83;;;19.30;99.90;;;;;;5012538;28;20278;-64
2022/07/02 01:14:18;;;;;;;4.30;3.30;;;19.30;99.90;;;;;;5010719;28;20451;-65
2022/07/02 01:16:44;;;;;;;4.90;3.20;;;19.30;99.90;;;;;;5011695;28;20447;-65
2022/07/02 01:19:15;;;;;;;4.63;3.03;;;19.30;99.90;;;;;;5014422;28;20472;-64
2022/07/02 01:22:20;;;;;;;4.03;3.60;;;19.30;99.90;;;;;;5015589;28;20183;-65
2022/07/02 01:24:49;;;;;;;4.80;3.43;;;19.30;99.90;;;;;;5016823;28;20472;-65
2022/07/02 01:27:16;;;;;;;4.17;3.37;;;19.30;99.90;;;;;;5014749;28;20431;-65
2022/07/02 01:29:41;;;;;;;4.10;3.40;;;19.30;99.90;;;;;;5013371;28;20510;-64
2022/07/02 01:32:08;;;;;;;3.87;3.57;;;19.30;99.90;;;;;;5016583;28;20475;-65
2022/07/02 01:34:36;;;;;;;3.03;2.80;;;19.30;99.90;;;;;;5016799;28;20642;-64
2022/07/02 01:37:03;;;;;;;4.63;3.50;;;19.30;99.90;;;;;;5013953;28;20431;-65
2022/07/02 01:39:29;;;;;;;5.07;3.50;;;19.30;99.90;;;;;;5017240;28;20477;-64
2022/07/02 01:41:54;;;;;;;4.37;3.97;;;19.20;99.90;;;;;;5014051;28;20946;-64
2022/07/02 01:44:20;;;;;;;4.43;3.30;;;19.20;99.90;;;;;;5018201;28;20185;-65
2022/07/02 01:46:46;;;;;;;7.03;3.97;;;19.20;99.90;;;;;;5015812;28;20187;-65
2022/07/02 01:49:12;;;;;;;5.10;3.20;;;19.20;99.90;;;;;;5015136;28;20293;-65
2022/07/02 01:51:37;;;;;;;4.60;3.13;;;19.10;99.90;;;;;;5014743;28;20283;-64
2022/07/02 01:54:03;;;;;;;3.23;2.73;;;19.10;99.90;;;;;;5014258;28;20193;-64
2022/07/02 01:56:32;;;;;;;3.33;3.03;;;19.00;99.90;;;;;;5011542;28;20558;-63
2022/07/02 01:58:58;;;;;;;3.33;3.03;;;19.00;99.90;;;;;;5013665;28;20217;-64
2022/07/02 02:01:24;;;;;;;3.90;3.00;;;19.00;99.90;;;;;;5009541;28;21006;-64
2022/07/02 02:03:49;;;;;;;3.07;2.67;;;19.00;99.90;;;;;;5017010;28;20647;-64
2022/07/02 02:06:15;;;;;;;2.80;2.50;;;19.00;99.90;;;;;;5015111;28;20410;-64
2022/07/02 02:08:41;;;;;;;3.00;2.70;;;18.90;99.90;;;;;;5017510;28;20623;-64
2022/07/02 02:11:06;;;;;;;5.47;3.20;;;18.90;99.90;;;;;;5014648;28;20419;-64
2022/07/02 02:13:32;;;;;;;4.17;2.97;;;18.90;99.90;;;;;;5015388;28;20727;-64
2022/07/02 02:15:57;;;;;;;3.60;2.80;;;18.80;99.90;;;;;;5013187;28;20185;-64
2022/07/02 02:18:23;;;;;;;4.57;3.00;;;18.80;99.90;;;;;;5015551;28;20193;-64
2022/07/02 02:20:48;;;;;;;5.40;3.30;;;18.70;99.90;;;;;;5014355;28;20172;-64
2022/07/02 02:23:14;;;;;;;5.57;3.20;;;18.60;99.90;;;;;;5015418;28;20530;-64
2022/07/02 02:25:39;;;;;;;5.20;3.07;;;18.70;99.90;;;;;;5012559;28;20185;-64
2022/07/02 02:28:05;;;;;;;4.53;2.70;;;18.70;99.90;;;;;;5014707;28;20181;-63
2022/07/02 02:30:31;;;;;;;7.13;2.60;;;18.70;99.90;;;;;;5012685;28;21178;-63
2022/07/02 02:32:56;;;;;;;4.53;2.87;;;18.60;99.90;;;;;;5013113;28;20733;-64
2022/07/02 02:35:23;;;;;;;4.17;3.00;;;18.60;99.90;;;;;;5014568;28;20868;-64
2022/07/02 02:37:48;;;;;;;3.13;2.83;;;18.50;99.90;;;;;;5014344;28;20205;-65
2022/07/02 02:40:14;;;;;;;5.33;2.73;;;18.40;99.90;;;;;;5013141;28;20503;-65
2022/07/02 02:42:39;;;;;;;2.67;2.47;;;18.50;99.90;;;;;;5015257;28;20176;-65
2022/07/02 02:45:05;;;;;;;3.83;2.87;;;18.50;99.90;;;;;;5016819;28;20260;-64
2022/07/02 02:47:31;;;;;;;4.80;2.80;;;18.50;99.90;;;;;;5015974;28;20881;-64
2022/07/02 02:49:56;;;;;;;4.80;2.67;;;18.50;99.90;;;;;;5012495;28;20484;-64
2022/07/02 02:52:22;;;;;;;3.40;2.37;;;18.60;99.90;;;;;;5015819;28;20303;-65
2022/07/02 02:54:48;;;;;;;2.83;2.50;;;18.60;99.90;;;;;;5011432;28;20608;-64
2022/07/02 02:57:13;;;;;;;3.23;2.77;;;18.50;99.90;;;;;;5017014;28;20199;-64
2022/07/02 02:59:40;;;;;;;4.53;3.63;;;18.50;99.90;;;;;;5012638;28;20677;-64
2022/07/02 03:02:05;;;;;;;6.63;2.97;;;18.50;99.90;;;;;;5013216;28;20466;-64
2022/07/02 03:04:31;;;;;;;6.10;2.90;;;18.40;99.90;;;;;;5011960;28;20967;-64
2022/07/02 03:06:56;;;;;;;3.40;2.50;;;18.30;99.90;;;;;;4999807;28;20204;-64
2022/07/02 03:09:22;;;;;;;3.33;2.67;;;18.30;99.90;;;;;;5018211;28;20213;-65
2022/07/02 03:11:48;;;;;;;3.30;2.67;;;18.30;99.90;;;;;;5015060;28;20377;-64
2022/07/02 03:14:13;;;;;;;3.83;3.17;;;18.30;99.90;;;;;;5014849;28;20185;-64
2022/07/02 03:16:39;;;;;;;5.00;2.37;;;18.30;99.90;;;;;;5016975;28;20188;-64
2022/07/02 03:19:04;;;;;;;4.83;3.13;;;18.30;99.90;;;;;;5010635;28;20227;-64
2022/07/02 03:21:30;;;;;;;2.70;2.50;;;18.30;99.90;;;;;;5016702;28;20554;-64
2022/07/02 03:23:55;;;;;;;6.03;2.83;;;18.30;99.90;;;;;;5010540;28;20188;-64
2022/07/02 03:26:21;;;;;;;3.03;2.73;;;18.20;99.90;;;;;;5016991;28;20255;-65
2022/07/02 03:28:46;;;;;;;3.10;2.80;;;18.30;99.90;;;;;;5014403;28;20263;-65
2022/07/02 03:31:12;;;;;;;3.00;2.70;;;18.30;99.90;;;;;;5014825;28;20188;-65
2022/07/02 03:33:38;;;;;;;4.83;3.07;;;18.30;99.90;;;;;;4998148;28;20606;-65
2022/07/02 03:36:04;;;;;;;3.37;2.60;;;18.20;99.90;;;;;;5011324;28;20192;-65
2022/07/02 03:38:30;;;;;;;3.30;2.63;;;18.20;99.90;;;;;;5010752;28;20473;-64
2022/07/02 03:40:55;;;;;;;3.23;2.60;;;18.20;99.90;;;;;;5014004;28;20515;-64
2022/07/02 03:43:21;;;;;;;5.03;2.50;;;18.20;99.90;;;;;;5011989;28;20264;-65
2022/07/02 03:45:46;;;;;;;3.13;2.60;;;18.10;99.90;;;;;;5011520;28;20189;-63
2022/07/02 03:48:12;;;;;;;4.17;2.53;;;18.10;99.90;;;;;;5011970;28;20191;-64
2022/07/02 03:50:40;;;;;;;2.50;2.30;;;18.00;99.90;;;;;;5012356;28;20215;-64
2022/07/02 03:53:06;;;;;;;3.83;2.77;;;18.10;99.90;;;;;;5014124;28;20187;-64
2022/07/02 03:55:32;;;;;;;2.70;2.50;;;18.00;99.90;;;;;;5015214;28;20436;-64
2022/07/02 03:57:58;;;;;;;2.97;2.30;;;18.00;99.90;;;;;;5014253;28;20514;-64
2022/07/02 04:00:23;;;;;;;2.53;2.33;;;18.00;99.90;;;;;;5011837;28;20648;-64
2022/07/02 04:02:49;;;;;;;3.63;2.50;;;18.10;99.90;;;;;;5014452;28;20816;-65
2022/07/02 04:05:14;;;;;;;4.97;2.53;;;18.10;99.90;;;;;;5009973;28;20172;-65
2022/07/02 04:07:40;;;;;;;3.30;2.50;;;18.00;99.90;;;;;;5016447;28;20568;-65
2022/07/02 04:10:07;;;;;;;2.57;2.37;;;17.90;99.90;;;;;;4991761;28;20217;-64
2022/07/02 04:12:33;;;;;;;3.17;2.40;;;17.90;99.90;;;;;;5009618;28;20260;-65
2022/07/02 04:14:59;;;;;;;2.80;2.30;;;17.90;99.90;;;;;;5011760;28;20590;-64
2022/07/02 04:17:25;;;;;;;3.47;2.47;;;17.80;99.90;;;;;;5014906;28;20223;-64
2022/07/02 04:19:50;;;;;;;2.73;2.43;;;17.80;99.90;;;;;;5010848;28;20792;-64
2022/07/02 04:22:16;;;;;;;2.90;2.60;;;17.80;99.90;;;;;;5011292;28;20173;-64
2022/07/02 04:24:41;;;;;;;2.80;2.27;;;17.80;99.90;;;;;;5014013;28;20268;-63
2022/07/02 04:27:07;;;;;;;3.23;2.33;;;17.80;99.90;;;;;;5014988;28;20756;-64
2022/07/02 04:29:33;;;;;;;3.27;2.67;;;17.70;99.90;;;;;;5015039;28;20205;-65
2022/07/02 04:31:58;;;;;;;2.67;2.47;;;17.80;99.90;;;;;;5014420;28;21014;-63
2022/07/02 04:34:24;;;;;;;3.63;2.37;;;17.80;99.90;;;;;;5010995;28;20188;-64
2022/07/02 04:36:49;;;;;;;2.33;2.13;;;17.70;99.90;;;;;;5012348;28;20238;-63
2022/07/02 04:39:15;;;;;;;4.63;2.40;;;17.80;99.90;;;;;;5012070;28;20592;-64
2022/07/02 04:41:41;;;;;;;2.63;2.30;;;17.80;99.90;;;;;;5014154;28;20265;-64
2022/07/02 04:44:06;;;;;;;2.60;2.07;;;17.80;99.90;;;;;;5012765;28;20183;-64
2022/07/02 04:46:32;;;;;;;2.60;2.40;;;17.80;99.90;;;;;;5015771;28;20181;-64
2022/07/02 04:48:58;;;;;;;2.97;2.67;;;17.90;99.90;;;;;;5010015;28;20299;-64
2022/07/02 04:51:24;;;;;;;4.50;2.30;;;17.90;99.90;;;;;;5009620;28;20203;-64
2022/07/02 04:53:51;;;;;;;3.53;2.50;;;17.90;99.90;;;;;;5013119;28;20541;-64
2022/07/02 04:56:16;;;;;;;2.57;2.37;;;17.80;99.90;;;;;;5012972;28;21066;-64
2022/07/02 04:58:42;;;;;;;4.10;2.23;;;17.80;99.90;;;;;;5012835;28;20217;-64
2022/07/02 05:01:07;;;;;;;3.67;2.50;;;17.90;99.90;;;;;;5011257;28;20275;-64
2022/07/02 05:03:33;;;;;;;4.70;2.23;;;18.00;99.90;;;;;;5027752;28;20189;-64
2022/07/02 05:05:59;;;;;;;4.07;2.30;;;18.00;99.90;;;;;;5012296;28;20192;-64
2022/07/02 05:08:26;;;;;;;4.17;2.50;;;18.00;99.90;;;;;;5015472;28;20208;-64
2022/07/02 05:10:52;;;;;;;2.83;2.63;;;18.00;99.90;;;;;;5012201;28;20173;-64
2022/07/02 05:13:18;;;;;;;2.80;2.40;;;18.00;99.90;;;;;;5013291;28;20795;-65
2022/07/02 05:15:45;;;;;;;2.63;2.17;;;18.10;99.90;;;;;;5012364;28;21012;-65
2022/07/02 05:18:11;;;;;;;7.10;3.30;;;18.10;99.90;;;;;;5011520;28;20192;-64
2022/07/02 05:20:36;;;;;;;3.70;2.20;;;18.10;99.90;;;;;;5009271;28;20479;-64
2022/07/02 05:23:02;;;;;;;2.60;2.20;;;18.10;99.90;;;;;;5013164;28;20902;-65
2022/07/02 05:25:27;;;;;;;6.27;2.80;;;18.10;99.90;;;;;;5016204;28;20188;-63
2022/07/02 05:27:53;;;;;;;2.63;2.10;;;18.20;99.90;;;;;;5011580;28;20188;-63
2022/07/02 05:30:18;;;;;;;2.23;2.03;;;18.20;99.90;;;;;;5012108;28;20209;-63
2022/07/02 05:32:44;;;;;;;2.40;2.20;;;18.30;99.90;;;;;;5010813;28;20612;-63
2022/07/02 05:35:10;;;;;;;2.50;2.30;;;18.30;99.90;;;;;;5011079;28;22097;-63
2022/07/02 05:37:35;;;;;;;2.47;2.20;;;18.40;99.90;;;;;;5012603;28;20181;-63
2022/07/02 05:40:01;;;;;;;5.93;3.10;;;18.40;99.90;;;;;;5011139;28;20224;-64
2022/07/02 05:42:27;;;;;;;2.67;2.20;;;18.40;99.90;;;;;;5014882;28;20751;-64
2022/07/02 05:44:52;;;;;;;2.93;2.63;;;18.50;99.90;;;;;;5012874;28;20181;-64
2022/07/02 05:47:18;;;;;;;2.60;2.40;;;18.50;99.90;;;;;;5012927;28;20462;-64
2022/07/02 05:49:43;;;;;;;2.87;2.57;;;18.50;99.90;;;;;;5011828;28;20762;-64
2022/07/02 05:52:09;;;;;;;2.73;2.53;;;18.60;99.90;;;;;;5012044;28;20192;-64
2022/07/02 05:54:35;;;;;;;4.63;2.43;;;18.70;99.90;;;;;;5012512;28;20738;-64
2022/07/02 05:57:00;;;;;;;3.70;2.60;;;18.70;99.90;;;;;;5012655;28;20200;-64
2022/07/02 05:59:26;;;;;;;2.43;2.00;;;18.80;99.90;;;;;;5012275;28;20307;-65
2022/07/02 06:01:51;;;;;;;3.17;2.87;;;18.80;99.90;;;;;;5011437;28;20662;-64
2022/07/02 06:04:17;;;;;;;7.40;5.43;;;18.90;99.90;;;;;;5015962;28;20188;-64
2022/07/02 06:09:27;;;;;;;5.90;4.50;;;19.00;99.90;;;;;;5015085;28;20219;-64
2022/07/02 06:11:53;;;;;;;5.90;3.47;;;19.00;99.90;;;;;;5016354;28;20982;-64
2022/07/02 06:14:18;;;;;;;6.80;2.40;;;19.10;99.90;;;;;;5014366;28;20871;-64
2022/07/02 06:16:44;;;;;;;3.60;2.70;;;19.10;99.90;;;;;;5015348;28;20192;-64
2022/07/02 06:19:10;;;;;;;2.70;2.33;;;19.20;99.90;;;;;;5014178;28;20216;-65
2022/07/02 06:21:36;;;;;;;3.23;2.93;;;19.20;99.90;;;;;;5013870;28;20191;-65
2022/07/02 06:24:02;;;;;;;2.73;2.53;;;19.30;99.90;;;;;;5014865;28;20185;-65
2022/07/02 06:26:27;;;;;;;4.00;2.70;;;19.30;99.90;;;;;;5018372;28;20446;-64
2022/07/02 06:28:53;;;;;;;2.83;2.53;;;19.40;99.90;;;;;;5015391;28;20455;-65
2022/07/02 06:31:18;;;;;;;3.90;2.40;;;19.50;99.90;;;;;;5012107;28;20231;-64
2022/07/02 06:33:44;;;;;;;5.10;4.17;;;19.50;99.90;;;;;;5018966;28;20185;-64
2022/07/02 06:36:14;;;;;;;6.23;5.10;;;19.50;99.90;;;;;;5012968;28;20542;-64
2022/07/02 06:38:39;;;;;;;4.00;3.60;;;19.60;99.90;;;;;;5017526;28;20208;-64
2022/07/02 06:43:49;;;;;;;3.60;3.07;;;19.70;99.90;;;;;;5013312;28;20243;-64
2022/07/02 06:46:15;;;;;;;3.40;2.60;;;19.80;99.90;;;;;;5017425;28;20439;-65
2022/07/02 06:48:40;;;;;;;3.30;2.93;;;19.80;99.90;;;;;;5015336;28;20209;-64
2022/07/02 06:51:06;;;;;;;2.53;2.33;;;19.90;99.90;;;;;;5013718;28;20219;-65
2022/07/02 06:53:31;;;;;;;2.60;2.40;;;20.00;99.90;;;;;;5015701;28;20826;-63
2022/07/02 06:55:57;;;;;;;8.20;4.20;;;20.00;99.90;;;;;;5013708;28;20229;-63
2022/07/02 06:58:22;;;;;;;2.93;2.63;;;20.00;99.90;;;;;;5013316;28;20189;-63
2022/07/02 07:00:48;;;;;;;5.37;2.90;;;20.10;99.90;;;;;;5013712;28;20634;-64
2022/07/02 07:03:14;;;;;;;5.90;2.50;;;20.20;99.90;;;;;;5012778;28;20192;-64
2022/07/02 07:05:44;;;;;;;4.03;3.27;;;20.30;99.90;;;;;;5013556;28;20212;-63
2022/07/02 07:08:10;;;;;;;9.87;8.90;;;20.30;99.90;;;;;;5002504;28;20259;-64
2022/07/02 07:10:35;;;;;;;3.27;2.60;;;20.40;99.90;;;;;;5014253;28;20467;-65
2022/07/02 07:13:01;;;;;;;3.70;3.40;;;20.40;99.90;;;;;;5013582;28;20193;-64
2022/07/02 07:15:26;;;;;;;5.80;3.30;;;20.50;99.90;;;;;;5011347;28;20673;-63
2022/07/02 07:17:52;;;;;;;4.60;2.80;;;20.50;99.90;;;;;;5013954;28;20189;-64
2022/07/02 07:20:19;;;;;;;3.10;2.80;;;20.70;99.90;;;;;;5011508;28;21553;-63
2022/07/02 07:22:44;;;;;;;2.93;2.43;;;20.70;99.90;;;;;;5013741;28;20431;-63
2022/07/02 07:25:10;;;;;;;3.67;3.33;;;20.80;99.90;;;;;;5010037;28;20440;-62
2022/07/02 07:27:36;;;;;;;3.43;2.30;;;20.90;99.90;;;;;;5013895;28;20197;-65
2022/07/02 07:30:01;;;;;;;3.13;2.83;;;21.00;99.90;;;;;;5035475;22;20260;-61
2022/07/02 07:32:27;;;;;;;4.23;2.73;;;21.00;99.90;;;;;;5014927;28;20990;-60
2022/07/02 07:34:52;;;;;;;2.70;2.20;;;21.10;99.90;;;;;;5010547;28;20197;-60
2022/07/02 07:37:18;;;;;;;2.77;2.47;;;21.30;99.90;;;;;;5014610;28;20199;-61
2022/07/02 07:39:44;;;;;;;3.53;3.23;;;21.30;99.90;;;;;;5009588;28;20225;-61
2022/07/02 07:42:09;;;;;;;3.47;3.10;;;21.40;99.90;;;;;;5015766;28;20215;-62
2022/07/02 07:44:35;;;;;;;4.23;3.43;;;21.40;99.90;;;;;;5015835;28;20314;-62
2022/07/02 07:47:00;;;;;;;4.70;4.30;;;21.60;99.90;;;;;;5013106;28;20192;-62
2022/07/02 07:49:26;;;;;;;4.00;2.20;;;21.60;99.90;;;;;;5013619;28;20212;-63
2022/07/02 07:51:51;;;;;;;3.30;2.27;;;21.70;99.90;;;;;;5014204;28;20714;-62
2022/07/02 07:54:17;;;;;;;3.50;2.80;;;21.70;99.90;;;;;;5011940;28;20671;-62
2022/07/02 07:56:43;;;;;;;3.00;2.40;;;21.70;99.90;;;;;;5009463;28;20606;-63
2022/07/02 07:59:09;;;;;;;10.13;9.00;;;21.80;99.90;;;;;;5015630;28;21031;-63
2022/07/02 08:01:34;;;;;;;2.60;2.40;;;21.90;99.90;;;;;;5012919;28;20501;-62
2022/07/02 08:04:00;;;;;;;2.67;2.20;;;21.90;99.90;;;;;;5011877;28;20703;-62
2022/07/02 08:06:26;;;;;;;2.87;2.67;;;22.00;99.90;;;;;;5018679;28;20181;-61
2022/07/02 08:08:51;;;;;;;2.53;2.33;;;22.10;99.90;;;;;;5012482;28;20204;-61
2022/07/02 08:11:17;;;;;;;2.70;2.30;;;22.20;99.90;;;;;;5014210;28;20227;-62
2022/07/02 08:13:42;;;;;;;2.50;2.30;;;22.30;99.90;;;;;;5013722;28;20207;-62
2022/07/02 08:16:08;;;;;;;3.00;2.70;;;22.40;99.90;;;;;;5006805;28;20196;-63
2022/07/02 08:18:33;;;;;;;4.00;3.67;;;22.40;99.90;;;;;;4991011;28;20200;-62
2022/07/02 08:21:00;;;;;;;7.60;5.50;;;22.50;99.90;;;;;;5008901;28;20720;-62
2022/07/02 08:23:26;;;;;;;3.00;2.40;;;22.50;99.90;;;;;;5010401;28;20178;-62
2022/07/02 08:25:54;;;;;;;2.43;2.23;;;22.50;99.90;;;;;;5010636;28;20505;-62
2022/07/02 08:28:20;;;;;;;3.27;2.63;;;22.60;99.90;;;;;;5010004;28;20443;-62
2022/07/02 08:30:46;;;;;;;2.20;2.00;;;22.60;99.90;;;;;;5009996;28;20478;-63
2022/07/02 08:33:15;;;;;;;2.70;2.50;;;22.60;99.90;;;;;;4994451;28;20983;-62
2022/07/02 08:35:42;;;;;;;7.13;6.13;;;22.70;99.90;;;;;;4993158;28;20999;-62
2022/07/02 08:38:10;;;;;;;2.70;2.50;;;22.90;99.90;;;;;;4995275;28;20454;-62
2022/07/02 08:40:40;;;;;;;3.97;3.63;;;22.90;99.90;;;;;;4995356;28;20474;-64
2022/07/02 08:43:06;;;;;;;3.23;2.57;;;23.00;99.90;;;;;;5013016;28;20439;-63
2022/07/02 08:45:32;;;;;;;2.07;1.87;;;23.10;99.90;;;;;;5001766;28;20438;-62
2022/07/02 08:47:59;;;;;;;3.70;2.97;;;23.20;99.90;;;;;;5012722;28;20459;-62
2022/07/02 08:50:26;;;;;;;2.10;1.90;;;23.20;99.90;;;;;;4997551;28;20632;-62
2022/07/02 08:52:52;;;;;;;2.37;2.07;;;23.20;99.90;;;;;;4996775;28;20474;-62
2022/07/02 08:55:19;;;;;;;5.60;2.10;;;23.20;99.90;;;;;;5014466;28;20704;-62
2022/07/02 08:57:49;;;;;;;2.90;2.17;;;23.30;99.90;;;;;;4994539;28;20283;-62
2022/07/02 09:00:17;;;;;;;5.50;2.50;;;23.30;99.90;;;;;;5013296;28;20984;-61
2022/07/02 09:02:44;;;;;;;2.20;2.00;;;23.40;99.90;;;;;;5014053;28;20438;-62
2022/07/02 09:05:11;;;;;;;2.23;1.97;;;23.40;99.90;;;;;;4994636;28;20427;-62
2022/07/02 09:07:41;;;;;;;2.50;2.20;;;23.60;99.90;;;;;;4997779;28;20526;-62
2022/07/02 09:10:09;;;;;;;2.40;2.00;;;23.60;99.90;;;;;;4995682;28;20447;-62
2022/07/02 09:12:35;;;;;;;2.50;2.30;;;23.70;99.90;;;;;;5001601;28;20436;-61
2022/07/02 09:15:02;;;;;;;2.90;2.03;;;23.70;99.90;;;;;;5004851;28;20451;-62
2022/07/02 09:17:28;;;;;;;2.20;2.00;;;23.70;99.90;;;;;;5002959;28;20455;-62
2022/07/02 09:19:53;;;;;;;3.33;2.03;;;23.80;99.90;;;;;;5001939;28;20490;-61
2022/07/02 09:22:30;;;;;;;1.90;1.70;;;23.80;99.90;;;;;;5012623;28;20443;-62
2022/07/02 09:24:56;;;;;;;3.50;2.20;;;23.80;99.90;;;;;;5014194;28;20272;-62
2022/07/02 09:27:24;;;;;;;2.13;1.93;;;23.90;99.90;;;;;;5014790;28;20580;-62
2022/07/02 09:29:54;;;;;;;2.50;2.03;;;23.90;99.90;;;;;;5015406;28;20474;-62
2022/07/02 09:32:20;;;;;;;2.87;2.07;;;23.90;99.90;;;;;;5000410;28;20462;-61
2022/07/02 09:34:50;;;;;;;2.10;1.90;;;24.10;99.90;;;;;;5010860;28;20511;-63
2022/07/02 09:37:20;;;;;;;2.20;2.00;;;24.00;99.90;;;;;;5009666;28;20424;-63
2022/07/02 09:39:48;;;;;;;2.60;2.27;;;24.10;99.90;;;;;;5003930;28;20914;-63
2022/07/02 09:42:29;;;;;;;2.60;2.40;;;24.20;99.90;;;;;;5013760;28;20522;-62
2022/07/02 09:44:57;;;;;;;2.27;2.07;;;24.30;99.90;;;;;;5011625;28;20436;-61
2022/07/02 09:47:49;;;;;;;2.77;2.00;;;24.40;99.90;;;;;;4982705;28;20427;-61
2022/07/02 09:50:17;;;;;;;5.40;2.03;;;24.40;99.90;;;;;;5019787;28;20446;-61
2022/07/02 09:52:52;;;;;;;2.33;2.13;;;24.40;99.90;;;;;;5017562;28;20439;-62
2022/07/02 09:55:37;;;;;;;2.87;2.10;;;24.40;99.90;;;;;;5015944;28;20442;-62
2022/07/02 09:58:04;;;;;;;2.83;2.40;;;24.40;99.90;;;;;;5017301;28;20505;-61
2022/07/02 10:00:42;;;;;;;2.50;2.30;;;24.50;99.90;;;;;;5017464;28;20987;-61
2022/07/02 10:03:07;;;;;;;3.10;2.27;;;24.40;99.90;;;;;;4998583;28;20496;-61
2022/07/02 10:05:33;;;;;;;3.80;2.63;;;24.50;99.90;;;;;;5013910;28;20925;-61
2022/07/02 10:08:01;;;;;;;2.40;2.20;;;24.60;99.90;;;;;;5009889;28;20200;-62
2022/07/02 10:10:38;;;;;;;2.40;2.10;;;24.70;99.90;;;;;;5000434;28;20494;-62
2022/07/02 10:13:06;;;;;;;2.00;1.80;;;24.70;99.90;;;;;;4999304;28;20477;-61
2022/07/02 10:15:36;;;;;;;2.20;2.00;;;24.70;99.90;;;;;;4999965;28;20447;-62
2022/07/02 10:18:03;;;;;;;8.13;2.20;;;24.70;99.90;;;;;;5009739;28;20439;-62
2022/07/02 10:20:30;;;;;;;3.03;2.60;;;24.80;99.90;;;;;;5009429;28;20476;-61
2022/07/02 10:23:04;;;;;;;2.47;2.10;;;24.80;99.90;;;;;;5013348;28;20435;-62
2022/07/02 10:25:32;;;;;;;2.30;2.10;;;24.90;99.90;;;;;;5002471;28;20441;-62
2022/07/02 10:27:58;;;;;;;2.50;1.90;;;24.80;99.40;;;;;;5014212;28;21351;-62
2022/07/02 10:30:34;;;;;;;2.13;1.93;;;24.90;99.40;;;;;;5016896;28;20582;-62
2022/07/02 10:33:30;;;;;;;2.57;2.10;;;25.00;99.30;;;;;;4998140;28;20189;-62
2022/07/02 10:35:59;;;;;;;3.70;2.07;;;25.10;98.60;;;;;;5017230;28;21028;-61
2022/07/02 10:38:37;;;;;;;2.47;1.90;;;25.30;97.00;;;;;;4998695;28;20902;-62
2022/07/02 10:41:03;;;;;;;2.90;2.20;;;25.40;96.10;;;;;;5013004;28;20447;-62
2022/07/02 10:43:33;;;;;;;2.60;2.40;;;25.40;96.50;;;;;;5008774;28;21009;-63
2022/07/02 10:46:07;;;;;;;2.03;1.83;;;25.50;95.60;;;;;;5013834;28;20234;-62
2022/07/02 10:48:49;;;;;;;3.90;2.20;;;25.50;95.50;;;;;;5017321;28;20435;-62
2022/07/02 10:51:20;;;;;;;3.97;1.90;;;25.60;95.00;;;;;;5011750;28;20440;-61
2022/07/02 10:54:03;;;;;;;2.67;1.90;;;25.60;94.80;;;;;;4997789;28;20435;-62
2022/07/02 10:56:30;;;;;;;2.20;2.00;;;25.70;93.80;;;;;;5016078;28;21311;-62
2022/07/02 10:58:56;;;;;;;2.73;2.10;;;25.80;93.90;;;;;;5013383;28;20474;-61
2022/07/02 11:01:23;;;;;;;2.17;1.97;;;25.90;93.30;;;;;;5015058;28;20439;-62
2022/07/02 11:03:58;;;;;;;2.10;1.90;;;26.00;92.90;;;;;;5005897;28;20431;-62
2022/07/02 11:06:32;;;;;;;2.30;2.10;;;26.00;92.20;;;;;;5015329;28;20466;-61
2022/07/02 11:09:02;;;;;;;5.50;2.10;;;26.10;91.90;;;;;;4997685;28;20443;-61
2022/07/02 11:11:40;;;;;;;2.67;2.03;;;26.20;91.30;;;;;;4995582;28;20435;-61
2022/07/02 11:14:11;;;;;;;2.30;2.03;;;26.20;89.40;;;;;;5010275;28;20517;-61
2022/07/02 11:16:49;;;;;;;3.17;1.90;;;26.40;89.40;;;;;;5010872;28;20435;-62
2022/07/02 11:19:25;;;;;;;2.20;2.00;;;26.50;88.80;;;;;;4994704;28;20475;-61
2022/07/02 11:21:58;;;;;;;2.00;1.70;;;26.50;84.70;;;;;;4989860;28;20436;-62
2022/07/02 11:24:26;;;;;;;2.10;1.90;;;26.50;86.80;;;;;;4993751;28;20467;-62
2022/07/02 11:26:53;;;;;;;2.33;2.10;;;26.60;87.20;;;;;;5006999;28;20522;-62
2022/07/02 11:29:19;;;;;;;1.90;1.70;;;26.70;85.00;;;;;;5009410;28;20492;-63
2022/07/02 11:31:51;;;;;;;2.10;1.67;;;26.90;84.70;;;;;;5006122;28;20444;-62
2022/07/02 11:34:21;;;;;;;4.33;3.17;;;26.90;80.80;;;;;;4990430;28;20439;-62
2022/07/02 11:36:48;;;;;;;2.90;2.20;;;26.80;82.20;;;;;;5006780;28;20810;-63
2022/07/02 11:39:15;;;;;;;2.13;1.93;;;26.90;82.60;;;;;;4987931;28;20482;-61
2022/07/02 11:41:43;;;;;;;2.80;2.47;;;27.00;81.00;;;;;;4982154;28;20443;-62
2022/07/02 11:44:17;;;;;;;2.20;2.00;;;27.30;81.10;;;;;;4990484;28;21233;-62
2022/07/02 11:46:56;;;;;;;2.30;2.10;;;27.30;76.00;;;;;;4990451;28;21109;-62
2022/07/02 11:49:25;;;;;;;2.47;2.27;;;27.50;77.50;;;;;;5007207;28;21080;-62
2022/07/02 11:51:53;;;;;;;2.00;1.80;;;27.90;76.00;;;;;;4989340;28;20712;-62
2022/07/02 11:54:20;;;;;;;3.80;1.80;;;28.10;73.10;;;;;;5004890;28;20427;-62
2022/07/02 11:56:47;;;;;;;2.13;1.93;;;28.00;71.80;;;;;;5005571;28;20531;-62
2022/07/02 11:59:16;;;;;;;3.07;2.40;;;28.40;73.10;;;;;;5008588;28;21416;-62
2022/07/02 12:01:44;;;;;;;3.03;2.10;;;28.90;73.30;;;;;;5006473;28;20485;-61
2022/07/02 12:04:15;;;;;;;4.43;2.17;;;29.40;72.20;;;;;;5009348;28;20478;-61
2022/07/02 12:06:43;;;;;;;4.13;2.10;;;30.00;71.30;;;;;;5006113;28;20442;-62
2022/07/02 12:09:11;;;;;;;2.10;1.90;;;31.10;68.90;;;;;;4986870;28;20592;-63
2022/07/02 12:11:39;;;;;;;2.27;2.00;;;33.00;64.10;;;;;;5008264;28;20444;-62
2022/07/02 12:14:06;;;;;;;1.80;1.70;;;35.50;59.40;;;;;;5008324;28;20435;-61
2022/07/02 12:16:33;;;;;;;1.80;1.70;;;37.70;55.50;;;;;;5008337;28;20405;-62
2022/07/02 12:19:04;;;;;;;4.63;2.47;;;39.50;49.80;;;;;;5007526;28;20536;-62
2022/07/02 12:21:36;;;;;;;2.97;2.00;;;40.80;45.80;;;;;;5008313;28;20475;-62
2022/07/02 12:24:05;;;;;;;2.13;1.93;;;41.80;42.30;;;;;;5010467;28;20822;-62
2022/07/02 12:26:31;;;;;;;2.40;2.03;;;42.60;40.30;;;;;;5001259;28;20431;-63
2022/07/02 12:31:50;;;;;;;4.80;1.70;;;43.50;38.30;;;;;;5013392;28;20461;-63
2022/07/02 12:34:17;;;;;;;2.00;1.80;;;44.00;35.60;;;;;;5009770;28;20470;-62
2022/07/02 12:36:53;;;;;;;1.87;1.77;;;44.20;35.00;;;;;;5009447;28;20439;-62
2022/07/02 12:39:21;;;;;;;2.50;1.90;;;44.60;34.60;;;;;;5007317;28;20470;-63
2022/07/02 12:41:46;;;;;;;2.30;2.10;;;44.60;33.30;;;;;;5008439;28;20814;-62
2022/07/02 12:44:20;;;;;;;1.93;1.80;;;44.30;33.00;;;;;;5009340;28;20434;-62
2022/07/02 12:46:50;;;;;;;2.40;2.03;;;44.30;33.10;;;;;;5008149;28;20171;-63
2022/07/02 12:49:22;;;;;;;2.27;2.07;;;44.20;33.40;;;;;;4994789;28;20470;-63
2022/07/02 12:52:02;;;;;;;2.20;2.00;;;44.40;32.50;;;;;;5007059;28;20448;-64
2022/07/02 12:54:38;;;;;;;2.10;1.90;;;42.50;31.20;;;;;;5007659;28;22295;-63
2022/07/02 12:57:18;;;;;;;2.30;2.10;;;43.40;32.70;;;;;;5008050;28;21785;-63
2022/07/02 12:59:45;;;;;;;2.17;1.97;;;43.20;31.80;;;;;;5007857;28;20482;-63
2022/07/02 13:02:23;;;;;;;2.63;2.00;;;43.10;32.10;;;;;;5004646;28;20485;-63